Brave Heart — ODVF — position and weather

sailwx.info

Track history (hours):
 
Tides and Currents Weather Stations Pressure Air Temp Water Temp Dewpoint Dewpoint Depression Visibility Wind Speed Wind Dir Waves Ship Positions

Brave Heart

Last reported at 2018-Jun-10 00:33 UTC. Time now 2018-Jun-22 07:46 UTC.
Position N 32°42' E 014°20'.
Warning: this ship's position is 12 days out of date.

; draft 4.2 m.

MMSI: 450535000.

Date/timePositionNaut miles runAvg speedWind from/ knotsBaromVisibWave heightAir tempDewpointWater temp
2018-Jun-10 00:33N 32°42' E 014°20'0 0.1
2018-Jun-10 00:30N 32°42' E 014°20'0 0.0
2018-Jun-09 21:54N 32°42' E 014°20'8 4.1
2018-Jun-09 19:52N 32°44' E 014°29'4 9.7
2018-Jun-09 19:29N 32°45' E 014°33'11 9.8
2018-Jun-09 18:25N 32°47' E 014°45'510.0
2018-Jun-09 17:57N 32°49' E 014°51'510.1
2018-Jun-09 17:30N 32°49' E 014°56'910.1
2018-Jun-09 16:39N 32°51' E 015°06'210.0
2018-Jun-09 16:30N 32°52' E 015°08'510.1
2018-Jun-09 16:00N 32°53' E 015°13'510.2
2018-Jun-09 15:30N 32°54' E 015°19'1510.1
2018-Jun-09 14:01N 32°58' E 015°37'010.1
2018-Jun-09 13:59N 32°58' E 015°37'510.1
2018-Jun-09 13:29N 32°59' E 015°43'422 9.3
2018-Jun-07 15:52N 35°52' E 023°30'3 9.8
2018-Jun-07 15:30N 35°55' E 023°32'5 9.8
2018-Jun-07 15:01N 35°60' E 023°34'5 9.8
2018-Jun-07 14:31N 36°04' E 023°36'5 9.8
2018-Jun-07 14:00N 36°09' E 023°38'5 9.9
2018-Jun-07 13:31N 36°13' E 023°41'1710.0
2018-Jun-07 11:49N 36°29' E 023°48'138 9.8
2018-Jun-06 21:42N 38°35' E 024°59'  
2018-Jun-03 00:05N 43°11' E 027°58'1 4.3
2018-Jun-02 23:54N 43°10' E 027°58'1 0.0
2018-Jun-01 05:52N 43°09' E 027°58'0 0.0
2018-Jun-01 05:28N 43°09' E 027°58'0 0.0
2018-Jun-01 04:58N 43°09' E 027°58'0 0.0
2018-Jun-01 04:28N 43°09' E 027°58'0 0.0
2018-Jun-01 03:58N 43°09' E 027°58'0 0.0
2018-Jun-01 03:16N 43°09' E 027°58'0 0.0
2018-Jun-01 02:52N 43°09' E 027°58'  
Track history (hours):
 
Tides and Currents Weather Stations Pressure Air Temp Water Temp Dewpoint Dewpoint Depression Visibility Wind Speed Wind Dir Waves Ship Positions

Brave Heart

Last reported at 2018-Jun-10 00:33 UTC. Time now 2018-Jun-22 07:46 UTC.
Position N 32°42' E 014°20'.
Warning: this ship's position is 12 days out of date.

; draft 4.2 m.

MMSI: 450535000.

Date/timePositionNaut miles runAvg speedWind from/ knotsBaromVisibWave heightAir tempDewpointWater temp
2018-Jun-10 00:33N 32°42' E 014°20'0 0.1
2018-Jun-10 00:30N 32°42' E 014°20'0 0.0
2018-Jun-09 21:54N 32°42' E 014°20'8 4.1
2018-Jun-09 19:52N 32°44' E 014°29'4 9.7
2018-Jun-09 19:29N 32°45' E 014°33'11 9.8
2018-Jun-09 18:25N 32°47' E 014°45'510.0
2018-Jun-09 17:57N 32°49' E 014°51'510.1
2018-Jun-09 17:30N 32°49' E 014°56'910.1
2018-Jun-09 16:39N 32°51' E 015°06'210.0
2018-Jun-09 16:30N 32°52' E 015°08'510.1
2018-Jun-09 16:00N 32°53' E 015°13'510.2
2018-Jun-09 15:30N 32°54' E 015°19'1510.1
2018-Jun-09 14:01N 32°58' E 015°37'010.1
2018-Jun-09 13:59N 32°58' E 015°37'510.1
2018-Jun-09 13:29N 32°59' E 015°43'422 9.3
2018-Jun-07 15:52N 35°52' E 023°30'3 9.8
2018-Jun-07 15:30N 35°55' E 023°32'5 9.8
2018-Jun-07 15:01N 35°60' E 023°34'5 9.8
2018-Jun-07 14:31N 36°04' E 023°36'5 9.8
2018-Jun-07 14:00N 36°09' E 023°38'5 9.9
2018-Jun-07 13:31N 36°13' E 023°41'1710.0
2018-Jun-07 11:49N 36°29' E 023°48'138 9.8
2018-Jun-06 21:42N 38°35' E 024°59'  
2018-Jun-03 00:05N 43°11' E 027°58'1 4.3
2018-Jun-02 23:54N 43°10' E 027°58'1 0.0
2018-Jun-01 05:52N 43°09' E 027°58'0 0.0
2018-Jun-01 05:28N 43°09' E 027°58'0 0.0
2018-Jun-01 04:58N 43°09' E 027°58'0 0.0
2018-Jun-01 04:28N 43°09' E 027°58'0 0.0
2018-Jun-01 03:58N 43°09' E 027°58'0 0.0
2018-Jun-01 03:16N 43°09' E 027°58'0 0.0
2018-Jun-01 02:52N 43°09' E 027°58'  

Dump ship's entire track history